sensor_id;sensor_type;location;lat;lon;timestamp;P1;durP1;ratioP1;P2;durP2;ratioP2
70605;SDS011;58173;52.500;5.494;2024-02-26T00:00:10;10.43;;;3.92;;
70605;SDS011;58173;52.500;5.494;2024-02-26T00:02:37;6.65;;;2.85;;
70605;SDS011;58173;52.500;5.494;2024-02-26T00:05:07;10.52;;;4.03;;
70605;SDS011;58173;52.500;5.494;2024-02-26T00:07:34;9.00;;;2.72;;
70605;SDS011;58173;52.500;5.494;2024-02-26T00:10:02;9.80;;;3.65;;
70605;SDS011;58173;52.500;5.494;2024-02-26T00:12:30;7.55;;;2.88;;
70605;SDS011;58173;52.500;5.494;2024-02-26T00:14:57;10.07;;;3.78;;
70605;SDS011;58173;52.500;5.494;2024-02-26T00:17:25;7.32;;;2.47;;
70605;SDS011;58173;52.500;5.494;2024-02-26T00:19:52;6.53;;;2.60;;
70605;SDS011;58173;52.500;5.494;2024-02-26T00:22:19;13.50;;;4.40;;
70605;SDS011;58173;52.500;5.494;2024-02-26T00:24:48;10.00;;;4.15;;
70605;SDS011;58173;52.500;5.494;2024-02-26T00:27:15;7.45;;;3.35;;
70605;SDS011;58173;52.500;5.494;2024-02-26T00:29:42;7.85;;;3.15;;
70605;SDS011;58173;52.500;5.494;2024-02-26T00:32:10;8.63;;;3.55;;
70605;SDS011;58173;52.500;5.494;2024-02-26T00:34:37;11.80;;;3.78;;
70605;SDS011;58173;52.500;5.494;2024-02-26T00:37:04;6.88;;;2.85;;
70605;SDS011;58173;52.500;5.494;2024-02-26T00:39:32;7.88;;;2.65;;
70605;SDS011;58173;52.500;5.494;2024-02-26T00:41:59;5.68;;;2.15;;
70605;SDS011;58173;52.500;5.494;2024-02-26T00:44:26;9.95;;;3.63;;
70605;SDS011;58173;52.500;5.494;2024-02-26T00:46:53;8.10;;;2.33;;
70605;SDS011;58173;52.500;5.494;2024-02-26T00:49:21;4.53;;;1.75;;
70605;SDS011;58173;52.500;5.494;2024-02-26T00:51:48;9.00;;;3.47;;
70605;SDS011;58173;52.500;5.494;2024-02-26T00:54:15;8.13;;;3.22;;
70605;SDS011;58173;52.500;5.494;2024-02-26T00:56:42;9.75;;;3.65;;
70605;SDS011;58173;52.500;5.494;2024-02-26T00:59:10;6.30;;;2.50;;
70605;SDS011;58173;52.500;5.494;2024-02-26T01:01:37;9.35;;;3.45;;
70605;SDS011;58173;52.500;5.494;2024-02-26T01:04:04;10.50;;;3.83;;
70605;SDS011;58173;52.500;5.494;2024-02-26T01:06:32;11.68;;;4.80;;
70605;SDS011;58173;52.500;5.494;2024-02-26T01:09:00;6.65;;;2.72;;
70605;SDS011;58173;52.500;5.494;2024-02-26T01:11:29;9.02;;;3.55;;
70605;SDS011;58173;52.500;5.494;2024-02-26T01:13:56;7.03;;;2.95;;
70605;SDS011;58173;52.500;5.494;2024-02-26T01:16:23;9.02;;;3.60;;
70605;SDS011;58173;52.500;5.494;2024-02-26T01:18:50;9.85;;;2.78;;
70605;SDS011;58173;52.500;5.494;2024-02-26T01:21:18;10.27;;;3.95;;
70605;SDS011;58173;52.500;5.494;2024-02-26T01:23:45;12.95;;;4.70;;
70605;SDS011;58173;52.500;5.494;2024-02-26T01:26:12;7.85;;;3.15;;
70605;SDS011;58173;52.500;5.494;2024-02-26T01:28:39;8.02;;;2.97;;
70605;SDS011;58173;52.500;5.494;2024-02-26T01:31:07;11.50;;;4.25;;
70605;SDS011;58173;52.500;5.494;2024-02-26T01:33:36;12.20;;;4.63;;
70605;SDS011;58173;52.500;5.494;2024-02-26T01:36:03;9.73;;;3.90;;
70605;SDS011;58173;52.500;5.494;2024-02-26T01:38:31;11.63;;;4.50;;
70605;SDS011;58173;52.500;5.494;2024-02-26T01:40:58;12.02;;;4.25;;
70605;SDS011;58173;52.500;5.494;2024-02-26T01:43:25;6.40;;;2.75;;
70605;SDS011;58173;52.500;5.494;2024-02-26T01:45:52;12.73;;;4.60;;
70605;SDS011;58173;52.500;5.494;2024-02-26T01:48:20;9.18;;;3.47;;
70605;SDS011;58173;52.500;5.494;2024-02-26T01:50:47;12.27;;;3.85;;
70605;SDS011;58173;52.500;5.494;2024-02-26T01:53:14;10.77;;;3.78;;
70605;SDS011;58173;52.500;5.494;2024-02-26T01:55:42;6.60;;;2.38;;
70605;SDS011;58173;52.500;5.494;2024-02-26T01:58:09;11.40;;;4.03;;
70605;SDS011;58173;52.500;5.494;2024-02-26T02:00:37;9.30;;;3.28;;
70605;SDS011;58173;52.500;5.494;2024-02-26T02:03:05;8.07;;;2.97;;
70605;SDS011;58173;52.500;5.494;2024-02-26T02:05:32;9.27;;;3.47;;
70605;SDS011;58173;52.500;5.494;2024-02-26T02:08:00;9.98;;;3.83;;
70605;SDS011;58173;52.500;5.494;2024-02-26T02:10:29;10.13;;;4.70;;
70605;SDS011;58173;52.500;5.494;2024-02-26T02:12:56;13.73;;;5.00;;
70605;SDS011;58173;52.500;5.494;2024-02-26T02:15:23;11.40;;;4.80;;
70605;SDS011;58173;52.500;5.494;2024-02-26T02:17:51;7.15;;;2.83;;
70605;SDS011;58173;52.500;5.494;2024-02-26T02:20:18;11.35;;;4.28;;
70605;SDS011;58173;52.500;5.494;2024-02-26T02:22:46;11.38;;;4.18;;
70605;SDS011;58173;52.500;5.494;2024-02-26T02:25:13;6.85;;;2.60;;
70605;SDS011;58173;52.500;5.494;2024-02-26T02:27:41;9.98;;;3.75;;
70605;SDS011;58173;52.500;5.494;2024-02-26T02:30:09;12.40;;;3.92;;
70605;SDS011;58173;52.500;5.494;2024-02-26T02:32:37;7.43;;;2.90;;
70605;SDS011;58173;52.500;5.494;2024-02-26T02:35:08;7.32;;;2.55;;
70605;SDS011;58173;52.500;5.494;2024-02-26T02:37:35;11.57;;;3.85;;
70605;SDS011;58173;52.500;5.494;2024-02-26T02:40:03;7.60;;;2.83;;
70605;SDS011;58173;52.500;5.494;2024-02-26T02:42:31;9.05;;;3.67;;
70605;SDS011;58173;52.500;5.494;2024-02-26T02:44:58;12.45;;;4.30;;
70605;SDS011;58173;52.500;5.494;2024-02-26T02:47:25;8.07;;;3.42;;
70605;SDS011;58173;52.500;5.494;2024-02-26T02:49:53;9.32;;;3.60;;
70605;SDS011;58173;52.500;5.494;2024-02-26T02:52:20;14.13;;;4.38;;
70605;SDS011;58173;52.500;5.494;2024-02-26T02:54:47;11.48;;;4.03;;
70605;SDS011;58173;52.500;5.494;2024-02-26T02:57:14;12.50;;;4.55;;
70605;SDS011;58173;52.500;5.494;2024-02-26T02:59:41;7.28;;;2.67;;
70605;SDS011;58173;52.500;5.494;2024-02-26T03:02:09;10.07;;;3.58;;
70605;SDS011;58173;52.500;5.494;2024-02-26T03:04:36;9.15;;;2.80;;
70605;SDS011;58173;52.500;5.494;2024-02-26T03:07:03;14.02;;;5.22;;
70605;SDS011;58173;52.500;5.494;2024-02-26T03:09:31;10.65;;;3.08;;
70605;SDS011;58173;52.500;5.494;2024-02-26T03:11:58;12.02;;;4.43;;
70605;SDS011;58173;52.500;5.494;2024-02-26T03:14:25;12.52;;;4.00;;
70605;SDS011;58173;52.500;5.494;2024-02-26T03:16:53;10.32;;;4.15;;
70605;SDS011;58173;52.500;5.494;2024-02-26T03:19:21;14.02;;;4.97;;
70605;SDS011;58173;52.500;5.494;2024-02-26T03:21:49;11.30;;;3.95;;
70605;SDS011;58173;52.500;5.494;2024-02-26T03:24:16;14.13;;;5.63;;
70605;SDS011;58173;52.500;5.494;2024-02-26T03:26:43;10.52;;;3.65;;
70605;SDS011;58173;52.500;5.494;2024-02-26T03:29:10;13.48;;;4.40;;
70605;SDS011;58173;52.500;5.494;2024-02-26T03:31:37;11.25;;;4.00;;
70605;SDS011;58173;52.500;5.494;2024-02-26T03:34:05;13.18;;;4.97;;
70605;SDS011;58173;52.500;5.494;2024-02-26T03:36:32;10.45;;;4.00;;
70605;SDS011;58173;52.500;5.494;2024-02-26T03:38:59;14.45;;;4.65;;
70605;SDS011;58173;52.500;5.494;2024-02-26T03:41:29;14.90;;;5.13;;
70605;SDS011;58173;52.500;5.494;2024-02-26T03:43:58;13.05;;;4.28;;
70605;SDS011;58173;52.500;5.494;2024-02-26T03:46:25;10.82;;;4.07;;
70605;SDS011;58173;52.500;5.494;2024-02-26T03:48:52;14.27;;;5.05;;
70605;SDS011;58173;52.500;5.494;2024-02-26T03:51:20;9.95;;;3.38;;
70605;SDS011;58173;52.500;5.494;2024-02-26T03:53:47;11.20;;;3.90;;
70605;SDS011;58173;52.500;5.494;2024-02-26T03:56:14;11.25;;;3.97;;
70605;SDS011;58173;52.500;5.494;2024-02-26T03:58:41;10.65;;;4.65;;
70605;SDS011;58173;52.500;5.494;2024-02-26T04:01:09;14.88;;;5.15;;
70605;SDS011;58173;52.500;5.494;2024-02-26T04:03:36;14.07;;;4.97;;
70605;SDS011;58173;52.500;5.494;2024-02-26T04:06:03;15.82;;;5.45;;
70605;SDS011;58173;52.500;5.494;2024-02-26T04:08:31;11.02;;;4.75;;
70605;SDS011;58173;52.500;5.494;2024-02-26T04:10:58;15.63;;;5.80;;
70605;SDS011;58173;52.500;5.494;2024-02-26T04:13:25;13.48;;;4.28;;
70605;SDS011;58173;52.500;5.494;2024-02-26T04:15:52;16.15;;;6.85;;
70605;SDS011;58173;52.500;5.494;2024-02-26T04:18:20;17.27;;;6.43;;
70605;SDS011;58173;52.500;5.494;2024-02-26T04:20:47;13.40;;;5.30;;
70605;SDS011;58173;52.500;5.494;2024-02-26T04:23:14;11.95;;;5.13;;
70605;SDS011;58173;52.500;5.494;2024-02-26T04:25:41;14.75;;;5.25;;
70605;SDS011;58173;52.500;5.494;2024-02-26T04:28:08;18.40;;;6.47;;
70605;SDS011;58173;52.500;5.494;2024-02-26T04:30:36;16.65;;;5.43;;
70605;SDS011;58173;52.500;5.494;2024-02-26T04:33:03;14.63;;;6.07;;
70605;SDS011;58173;52.500;5.494;2024-02-26T04:35:31;21.05;;;6.78;;
70605;SDS011;58173;52.500;5.494;2024-02-26T04:37:59;16.40;;;6.15;;
70605;SDS011;58173;52.500;5.494;2024-02-26T04:40:26;13.00;;;5.40;;
70605;SDS011;58173;52.500;5.494;2024-02-26T04:42:53;17.33;;;6.78;;
70605;SDS011;58173;52.500;5.494;2024-02-26T04:45:20;18.63;;;5.47;;
70605;SDS011;58173;52.500;5.494;2024-02-26T04:47:48;11.60;;;4.32;;
70605;SDS011;58173;52.500;5.494;2024-02-26T04:50:15;14.85;;;4.95;;
70605;SDS011;58173;52.500;5.494;2024-02-26T04:52:42;21.63;;;7.65;;
70605;SDS011;58173;52.500;5.494;2024-02-26T04:55:10;18.50;;;6.60;;
70605;SDS011;58173;52.500;5.494;2024-02-26T04:57:37;19.35;;;7.38;;
70605;SDS011;58173;52.500;5.494;2024-02-26T05:00:04;12.07;;;4.72;;
70605;SDS011;58173;52.500;5.494;2024-02-26T05:02:32;14.80;;;5.88;;
70605;SDS011;58173;52.500;5.494;2024-02-26T05:05:04;18.48;;;4.75;;
70605;SDS011;58173;52.500;5.494;2024-02-26T05:07:32;15.05;;;6.38;;
70605;SDS011;58173;52.500;5.494;2024-02-26T05:09:59;13.40;;;4.57;;
70605;SDS011;58173;52.500;5.494;2024-02-26T05:12:26;13.57;;;5.78;;
70605;SDS011;58173;52.500;5.494;2024-02-26T05:14:54;15.25;;;5.00;;
70605;SDS011;58173;52.500;5.494;2024-02-26T05:17:21;16.98;;;5.40;;
70605;SDS011;58173;52.500;5.494;2024-02-26T05:19:51;13.52;;;5.57;;
70605;SDS011;58173;52.500;5.494;2024-02-26T05:22:19;15.75;;;6.60;;
70605;SDS011;58173;52.500;5.494;2024-02-26T05:24:46;12.30;;;4.03;;
70605;SDS011;58173;52.500;5.494;2024-02-26T05:27:13;22.65;;;7.40;;
70605;SDS011;58173;52.500;5.494;2024-02-26T05:29:40;14.82;;;5.75;;
70605;SDS011;58173;52.500;5.494;2024-02-26T05:32:07;12.45;;;4.53;;
70605;SDS011;58173;52.500;5.494;2024-02-26T05:34:35;13.63;;;5.88;;
70605;SDS011;58173;52.500;5.494;2024-02-26T05:37:02;17.58;;;7.22;;
70605;SDS011;58173;52.500;5.494;2024-02-26T05:39:29;15.75;;;5.90;;
70605;SDS011;58173;52.500;5.494;2024-02-26T05:41:56;13.30;;;5.18;;
70605;SDS011;58173;52.500;5.494;2024-02-26T05:44:26;13.20;;;4.82;;
70605;SDS011;58173;52.500;5.494;2024-02-26T05:46:53;11.52;;;3.80;;
70605;SDS011;58173;52.500;5.494;2024-02-26T05:49:20;14.70;;;4.82;;
70605;SDS011;58173;52.500;5.494;2024-02-26T05:51:48;14.73;;;5.28;;
70605;SDS011;58173;52.500;5.494;2024-02-26T05:54:15;18.77;;;6.35;;
70605;SDS011;58173;52.500;5.494;2024-02-26T05:56:43;13.95;;;5.93;;
70605;SDS011;58173;52.500;5.494;2024-02-26T05:59:10;12.43;;;4.82;;
70605;SDS011;58173;52.500;5.494;2024-02-26T06:01:37;16.33;;;5.15;;
70605;SDS011;58173;52.500;5.494;2024-02-26T06:04:04;11.55;;;4.97;;
70605;SDS011;58173;52.500;5.494;2024-02-26T06:06:31;11.23;;;4.63;;
70605;SDS011;58173;52.500;5.494;2024-02-26T06:08:59;12.65;;;4.57;;
70605;SDS011;58173;52.500;5.494;2024-02-26T06:11:26;12.18;;;4.47;;
70605;SDS011;58173;52.500;5.494;2024-02-26T06:13:53;14.25;;;6.20;;
70605;SDS011;58173;52.500;5.494;2024-02-26T06:16:21;10.63;;;3.97;;
70605;SDS011;58173;52.500;5.494;2024-02-26T06:18:48;9.07;;;3.42;;
70605;SDS011;58173;52.500;5.494;2024-02-26T06:21:15;13.90;;;5.13;;
70605;SDS011;58173;52.500;5.494;2024-02-26T06:23:42;12.25;;;5.30;;
70605;SDS011;58173;52.500;5.494;2024-02-26T06:26:10;11.27;;;4.50;;
70605;SDS011;58173;52.500;5.494;2024-02-26T06:28:37;12.25;;;4.85;;
70605;SDS011;58173;52.500;5.494;2024-02-26T06:31:07;12.57;;;5.15;;
70605;SDS011;58173;52.500;5.494;2024-02-26T06:33:34;9.98;;;4.18;;
70605;SDS011;58173;52.500;5.494;2024-02-26T06:36:01;10.95;;;4.53;;
70605;SDS011;58173;52.500;5.494;2024-02-26T06:38:29;11.98;;;4.75;;
70605;SDS011;58173;52.500;5.494;2024-02-26T06:40:56;6.25;;;2.83;;
70605;SDS011;58173;52.500;5.494;2024-02-26T06:43:23;10.20;;;4.03;;
70605;SDS011;58173;52.500;5.494;2024-02-26T06:45:50;10.80;;;4.15;;
70605;SDS011;58173;52.500;5.494;2024-02-26T06:48:18;10.65;;;4.40;;
70605;SDS011;58173;52.500;5.494;2024-02-26T06:50:45;9.68;;;4.00;;
70605;SDS011;58173;52.500;5.494;2024-02-26T06:53:12;12.45;;;5.20;;
70605;SDS011;58173;52.500;5.494;2024-02-26T06:55:39;9.75;;;3.67;;
70605;SDS011;58173;52.500;5.494;2024-02-26T06:58:07;15.13;;;5.68;;
70605;SDS011;58173;52.500;5.494;2024-02-26T07:00:34;9.80;;;3.53;;
70605;SDS011;58173;52.500;5.494;2024-02-26T07:03:01;8.70;;;3.17;;
70605;SDS011;58173;52.500;5.494;2024-02-26T07:05:29;8.63;;;3.15;;
70605;SDS011;58173;52.500;5.494;2024-02-26T07:07:56;7.40;;;2.88;;
70605;SDS011;58173;52.500;5.494;2024-02-26T07:10:23;11.88;;;4.00;;
70605;SDS011;58173;52.500;5.494;2024-02-26T07:12:50;8.63;;;2.92;;
70605;SDS011;58173;52.500;5.494;2024-02-26T07:15:17;9.73;;;2.45;;
70605;SDS011;58173;52.500;5.494;2024-02-26T07:17:45;9.02;;;3.00;;
70605;SDS011;58173;52.500;5.494;2024-02-26T07:20:14;7.50;;;2.58;;
70605;SDS011;58173;52.500;5.494;2024-02-26T07:22:43;7.82;;;2.92;;
70605;SDS011;58173;52.500;5.494;2024-02-26T07:25:10;12.10;;;3.72;;
70605;SDS011;58173;52.500;5.494;2024-02-26T07:27:39;6.93;;;2.58;;
70605;SDS011;58173;52.500;5.494;2024-02-26T07:30:06;5.65;;;2.22;;
70605;SDS011;58173;52.500;5.494;2024-02-26T07:32:37;7.47;;;2.22;;
70605;SDS011;58173;52.500;5.494;2024-02-26T07:35:04;5.68;;;1.88;;
70605;SDS011;58173;52.500;5.494;2024-02-26T07:37:32;5.60;;;1.85;;
70605;SDS011;58173;52.500;5.494;2024-02-26T07:39:59;6.90;;;2.55;;
70605;SDS011;58173;52.500;5.494;2024-02-26T07:42:27;4.75;;;1.77;;
70605;SDS011;58173;52.500;5.494;2024-02-26T07:44:54;8.20;;;2.30;;
70605;SDS011;58173;52.500;5.494;2024-02-26T07:47:22;5.65;;;2.15;;
70605;SDS011;58173;52.500;5.494;2024-02-26T07:49:49;8.18;;;3.05;;
70605;SDS011;58173;52.500;5.494;2024-02-26T07:52:16;7.63;;;2.10;;
70605;SDS011;58173;52.500;5.494;2024-02-26T07:54:44;7.68;;;2.47;;
70605;SDS011;58173;52.500;5.494;2024-02-26T07:57:11;6.20;;;2.03;;
70605;SDS011;58173;52.500;5.494;2024-02-26T07:59:41;3.65;;;1.70;;
70605;SDS011;58173;52.500;5.494;2024-02-26T08:02:08;4.75;;;1.85;;
70605;SDS011;58173;52.500;5.494;2024-02-26T08:04:36;3.63;;;1.40;;
70605;SDS011;58173;52.500;5.494;2024-02-26T08:07:03;4.95;;;1.90;;
70605;SDS011;58173;52.500;5.494;2024-02-26T08:09:30;4.68;;;1.90;;
70605;SDS011;58173;52.500;5.494;2024-02-26T08:11:58;5.90;;;2.25;;
70605;SDS011;58173;52.500;5.494;2024-02-26T08:14:25;5.15;;;2.05;;
70605;SDS011;58173;52.500;5.494;2024-02-26T08:16:52;4.38;;;1.58;;
70605;SDS011;58173;52.500;5.494;2024-02-26T08:19:19;4.47;;;1.77;;
70605;SDS011;58173;52.500;5.494;2024-02-26T08:21:47;6.68;;;2.25;;
70605;SDS011;58173;52.500;5.494;2024-02-26T08:24:14;4.25;;;1.65;;
70605;SDS011;58173;52.500;5.494;2024-02-26T08:26:41;5.32;;;1.80;;
70605;SDS011;58173;52.500;5.494;2024-02-26T08:29:08;5.35;;;1.85;;
70605;SDS011;58173;52.500;5.494;2024-02-26T08:31:35;5.07;;;1.70;;
70605;SDS011;58173;52.500;5.494;2024-02-26T08:34:04;4.88;;;1.83;;
70605;SDS011;58173;52.500;5.494;2024-02-26T08:36:32;4.75;;;1.90;;
70605;SDS011;58173;52.500;5.494;2024-02-26T08:39:00;6.22;;;2.13;;
70605;SDS011;58173;52.500;5.494;2024-02-26T08:41:27;7.13;;;2.20;;
70605;SDS011;58173;52.500;5.494;2024-02-26T08:43:54;5.40;;;2.22;;
70605;SDS011;58173;52.500;5.494;2024-02-26T08:46:21;8.27;;;2.40;;
70605;SDS011;58173;52.500;5.494;2024-02-26T08:48:50;5.90;;;2.45;;
70605;SDS011;58173;52.500;5.494;2024-02-26T08:51:17;7.68;;;2.13;;
70605;SDS011;58173;52.500;5.494;2024-02-26T08:53:44;5.88;;;2.00;;
70605;SDS011;58173;52.500;5.494;2024-02-26T08:56:12;7.05;;;2.70;;
70605;SDS011;58173;52.500;5.494;2024-02-26T08:58:44;5.63;;;2.28;;
70605;SDS011;58173;52.500;5.494;2024-02-26T09:01:15;5.65;;;1.90;;
70605;SDS011;58173;52.500;5.494;2024-02-26T09:03:43;6.63;;;2.35;;
70605;SDS011;58173;52.500;5.494;2024-02-26T09:06:10;6.25;;;1.98;;
70605;SDS011;58173;52.500;5.494;2024-02-26T09:08:40;8.13;;;2.53;;
70605;SDS011;58173;52.500;5.494;2024-02-26T09:11:07;4.43;;;1.60;;
70605;SDS011;58173;52.500;5.494;2024-02-26T09:13:36;7.40;;;2.53;;
70605;SDS011;58173;52.500;5.494;2024-02-26T09:16:04;7.07;;;1.92;;
70605;SDS011;58173;52.500;5.494;2024-02-26T09:18:32;7.57;;;2.72;;
70605;SDS011;58173;52.500;5.494;2024-02-26T09:20:59;5.63;;;2.35;;
70605;SDS011;58173;52.500;5.494;2024-02-26T09:23:26;6.40;;;1.80;;
70605;SDS011;58173;52.500;5.494;2024-02-26T09:25:53;6.05;;;2.15;;
70605;SDS011;58173;52.500;5.494;2024-02-26T09:28:21;4.80;;;1.90;;
70605;SDS011;58173;52.500;5.494;2024-02-26T09:30:48;5.63;;;2.30;;
70605;SDS011;58173;52.500;5.494;2024-02-26T09:33:16;4.72;;;2.00;;
70605;SDS011;58173;52.500;5.494;2024-02-26T09:35:43;6.20;;;2.35;;
70605;SDS011;58173;52.500;5.494;2024-02-26T09:38:11;6.05;;;2.22;;
70605;SDS011;58173;52.500;5.494;2024-02-26T09:40:39;5.10;;;2.17;;
70605;SDS011;58173;52.500;5.494;2024-02-26T09:43:06;4.95;;;1.80;;
70605;SDS011;58173;52.500;5.494;2024-02-26T09:45:36;5.85;;;2.42;;
70605;SDS011;58173;52.500;5.494;2024-02-26T09:48:05;6.03;;;2.15;;
70605;SDS011;58173;52.500;5.494;2024-02-26T09:50:35;5.60;;;2.22;;
70605;SDS011;58173;52.500;5.494;2024-02-26T09:53:03;9.32;;;3.72;;
70605;SDS011;58173;52.500;5.494;2024-02-26T09:55:31;5.22;;;1.98;;
70605;SDS011;58173;52.500;5.494;2024-02-26T09:57:58;7.05;;;2.47;;
70605;SDS011;58173;52.500;5.494;2024-02-26T10:00:26;4.05;;;1.90;;
70605;SDS011;58173;52.500;5.494;2024-02-26T10:02:56;7.22;;;2.80;;
70605;SDS011;58173;52.500;5.494;2024-02-26T10:05:24;5.82;;;2.03;;
70605;SDS011;58173;52.500;5.494;2024-02-26T10:07:53;5.70;;;2.30;;
70605;SDS011;58173;52.500;5.494;2024-02-26T10:10:22;5.10;;;1.80;;
70605;SDS011;58173;52.500;5.494;2024-02-26T10:12:49;4.80;;;1.58;;
70605;SDS011;58173;52.500;5.494;2024-02-26T10:15:17;5.72;;;2.22;;
70605;SDS011;58173;52.500;5.494;2024-02-26T10:17:44;6.70;;;2.40;;
70605;SDS011;58173;52.500;5.494;2024-02-26T10:20:15;6.28;;;2.50;;
70605;SDS011;58173;52.500;5.494;2024-02-26T10:22:44;4.38;;;1.55;;
70605;SDS011;58173;52.500;5.494;2024-02-26T10:25:11;5.30;;;2.00;;
70605;SDS011;58173;52.500;5.494;2024-02-26T10:27:40;5.20;;;1.70;;
70605;SDS011;58173;52.500;5.494;2024-02-26T10:30:21;7.03;;;2.45;;
70605;SDS011;58173;52.500;5.494;2024-02-26T10:32:49;7.03;;;2.20;;
70605;SDS011;58173;52.500;5.494;2024-02-26T10:35:17;7.15;;;2.05;;
70605;SDS011;58173;52.500;5.494;2024-02-26T10:37:46;8.18;;;2.63;;
70605;SDS011;58173;52.500;5.494;2024-02-26T10:40:14;5.85;;;2.25;;
70605;SDS011;58173;52.500;5.494;2024-02-26T10:42:41;9.27;;;2.75;;
70605;SDS011;58173;52.500;5.494;2024-02-26T10:45:09;6.10;;;2.00;;
70605;SDS011;58173;52.500;5.494;2024-02-26T10:47:36;4.88;;;1.90;;
70605;SDS011;58173;52.500;5.494;2024-02-26T10:50:04;3.95;;;1.83;;
70605;SDS011;58173;52.500;5.494;2024-02-26T10:52:32;5.72;;;2.33;;
70605;SDS011;58173;52.500;5.494;2024-02-26T10:55:01;5.30;;;2.10;;
70605;SDS011;58173;52.500;5.494;2024-02-26T10:57:31;6.07;;;1.95;;
70605;SDS011;58173;52.500;5.494;2024-02-26T11:00:01;6.03;;;2.50;;
70605;SDS011;58173;52.500;5.494;2024-02-26T11:02:31;3.80;;;1.38;;
70605;SDS011;58173;52.500;5.494;2024-02-26T11:05:02;5.97;;;1.90;;
70605;SDS011;58173;52.500;5.494;2024-02-26T11:07:30;6.38;;;2.13;;
70605;SDS011;58173;52.500;5.494;2024-02-26T11:10:01;7.55;;;3.00;;
70605;SDS011;58173;52.500;5.494;2024-02-26T11:12:29;5.78;;;1.90;;
70605;SDS011;58173;52.500;5.494;2024-02-26T11:14:58;4.93;;;1.83;;
70605;SDS011;58173;52.500;5.494;2024-02-26T11:17:28;5.38;;;2.15;;
70605;SDS011;58173;52.500;5.494;2024-02-26T11:19:58;5.68;;;1.65;;
70605;SDS011;58173;52.500;5.494;2024-02-26T11:22:28;5.63;;;2.13;;
70605;SDS011;58173;52.500;5.494;2024-02-26T11:24:56;3.85;;;1.15;;
70605;SDS011;58173;52.500;5.494;2024-02-26T11:27:24;5.57;;;2.20;;
70605;SDS011;58173;52.500;5.494;2024-02-26T11:29:56;5.43;;;1.83;;
70605;SDS011;58173;52.500;5.494;2024-02-26T11:32:27;4.50;;;1.95;;
70605;SDS011;58173;52.500;5.494;2024-02-26T11:34:58;3.15;;;1.30;;
70605;SDS011;58173;52.500;5.494;2024-02-26T11:37:25;6.55;;;2.13;;
70605;SDS011;58173;52.500;5.494;2024-02-26T11:39:53;6.15;;;1.95;;
70605;SDS011;58173;52.500;5.494;2024-02-26T11:42:23;5.25;;;1.88;;
70605;SDS011;58173;52.500;5.494;2024-02-26T11:44:52;4.10;;;1.70;;
70605;SDS011;58173;52.500;5.494;2024-02-26T11:47:20;5.93;;;2.55;;
70605;SDS011;58173;52.500;5.494;2024-02-26T11:49:48;5.60;;;2.08;;
70605;SDS011;58173;52.500;5.494;2024-02-26T11:52:16;3.67;;;1.55;;
70605;SDS011;58173;52.500;5.494;2024-02-26T11:54:50;4.60;;;1.63;;
70605;SDS011;58173;52.500;5.494;2024-02-26T11:59:55;5.10;;;1.95;;
70605;SDS011;58173;52.500;5.494;2024-02-26T12:02:39;4.38;;;1.77;;
70605;SDS011;58173;52.500;5.494;2024-02-26T12:07:34;4.72;;;1.40;;
70605;SDS011;58173;52.500;5.494;2024-02-26T12:10:23;5.07;;;1.63;;
70605;SDS011;58173;52.500;5.494;2024-02-26T12:12:55;4.03;;;1.80;;
70605;SDS011;58173;52.500;5.494;2024-02-26T12:15:30;4.60;;;1.75;;
70605;SDS011;58173;52.500;5.494;2024-02-26T12:18:17;4.15;;;1.90;;
70605;SDS011;58173;52.500;5.494;2024-02-26T12:20:45;5.10;;;1.83;;
70605;SDS011;58173;52.500;5.494;2024-02-26T12:23:16;5.85;;;2.13;;
70605;SDS011;58173;52.500;5.494;2024-02-26T12:25:44;4.95;;;1.95;;
70605;SDS011;58173;52.500;5.494;2024-02-26T12:28:14;5.75;;;2.10;;
70605;SDS011;58173;52.500;5.494;2024-02-26T12:30:41;4.55;;;1.83;;
70605;SDS011;58173;52.500;5.494;2024-02-26T12:33:08;5.38;;;2.13;;
70605;SDS011;58173;52.500;5.494;2024-02-26T12:35:36;4.95;;;2.00;;
70605;SDS011;58173;52.500;5.494;2024-02-26T12:38:03;5.45;;;2.35;;
70605;SDS011;58173;52.500;5.494;2024-02-26T12:40:30;4.85;;;1.70;;
70605;SDS011;58173;52.500;5.494;2024-02-26T12:42:58;3.40;;;1.60;;
70605;SDS011;58173;52.500;5.494;2024-02-26T12:45:25;4.93;;;1.40;;
70605;SDS011;58173;52.500;5.494;2024-02-26T12:47:54;6.13;;;1.88;;
70605;SDS011;58173;52.500;5.494;2024-02-26T12:50:23;2.75;;;1.00;;
70605;SDS011;58173;52.500;5.494;2024-02-26T12:52:50;4.18;;;1.33;;
70605;SDS011;58173;52.500;5.494;2024-02-26T12:55:18;2.33;;;1.02;;
70605;SDS011;58173;52.500;5.494;2024-02-26T12:57:47;3.75;;;1.38;;
70605;SDS011;58173;52.500;5.494;2024-02-26T13:00:16;5.22;;;1.65;;
70605;SDS011;58173;52.500;5.494;2024-02-26T13:02:45;3.67;;;1.42;;
70605;SDS011;58173;52.500;5.494;2024-02-26T13:05:13;4.35;;;1.73;;
70605;SDS011;58173;52.500;5.494;2024-02-26T13:07:42;3.63;;;1.17;;
70605;SDS011;58173;52.500;5.494;2024-02-26T13:10:10;4.75;;;1.60;;
70605;SDS011;58173;52.500;5.494;2024-02-26T13:12:46;5.05;;;2.08;;
70605;SDS011;58173;52.500;5.494;2024-02-26T13:15:15;4.32;;;1.38;;
70605;SDS011;58173;52.500;5.494;2024-02-26T13:17:46;3.78;;;1.83;;
70605;SDS011;58173;52.500;5.494;2024-02-26T13:20:24;6.57;;;1.08;;
70605;SDS011;58173;52.500;5.494;2024-02-26T13:22:51;4.32;;;1.50;;
70605;SDS011;58173;52.500;5.494;2024-02-26T13:25:26;4.45;;;1.52;;
70605;SDS011;58173;52.500;5.494;2024-02-26T13:28:04;6.18;;;1.80;;
70605;SDS011;58173;52.500;5.494;2024-02-26T13:30:31;5.55;;;1.98;;
70605;SDS011;58173;52.500;5.494;2024-02-26T13:33:06;4.13;;;1.40;;
70605;SDS011;58173;52.500;5.494;2024-02-26T13:35:34;4.45;;;1.90;;
70605;SDS011;58173;52.500;5.494;2024-02-26T13:38:02;4.72;;;1.60;;
70605;SDS011;58173;52.500;5.494;2024-02-26T13:40:29;5.75;;;1.45;;
70605;SDS011;58173;52.500;5.494;2024-02-26T13:42:57;5.15;;;2.00;;
70605;SDS011;58173;52.500;5.494;2024-02-26T13:45:24;4.07;;;1.45;;
70605;SDS011;58173;52.500;5.494;2024-02-26T13:48:03;4.28;;;1.73;;
70605;SDS011;58173;52.500;5.494;2024-02-26T13:50:31;6.30;;;1.98;;
70605;SDS011;58173;52.500;5.494;2024-02-26T13:52:58;5.45;;;1.90;;
70605;SDS011;58173;52.500;5.494;2024-02-26T13:55:26;4.43;;;1.80;;
70605;SDS011;58173;52.500;5.494;2024-02-26T13:57:54;5.32;;;1.80;;
70605;SDS011;58173;52.500;5.494;2024-02-26T14:00:23;4.78;;;1.58;;
70605;SDS011;58173;52.500;5.494;2024-02-26T14:02:51;6.53;;;1.52;;
70605;SDS011;58173;52.500;5.494;2024-02-26T14:05:18;4.50;;;1.73;;
70605;SDS011;58173;52.500;5.494;2024-02-26T14:07:45;5.60;;;2.10;;
70605;SDS011;58173;52.500;5.494;2024-02-26T14:10:17;7.13;;;2.88;;
70605;SDS011;58173;52.500;5.494;2024-02-26T14:12:44;4.38;;;1.70;;
70605;SDS011;58173;52.500;5.494;2024-02-26T14:15:11;5.85;;;1.95;;
70605;SDS011;58173;52.500;5.494;2024-02-26T14:17:39;4.97;;;1.92;;
70605;SDS011;58173;52.500;5.494;2024-02-26T14:20:06;5.22;;;1.80;;
70605;SDS011;58173;52.500;5.494;2024-02-26T14:22:35;6.53;;;1.92;;
70605;SDS011;58173;52.500;5.494;2024-02-26T14:25:02;5.70;;;2.13;;
70605;SDS011;58173;52.500;5.494;2024-02-26T14:27:30;4.88;;;1.63;;
70605;SDS011;58173;52.500;5.494;2024-02-26T14:29:57;3.20;;;1.27;;
70605;SDS011;58173;52.500;5.494;2024-02-26T14:32:25;4.63;;;1.90;;
70605;SDS011;58173;52.500;5.494;2024-02-26T14:34:52;5.63;;;2.00;;
70605;SDS011;58173;52.500;5.494;2024-02-26T14:37:19;8.23;;;2.97;;
70605;SDS011;58173;52.500;5.494;2024-02-26T14:39:46;6.75;;;2.80;;
70605;SDS011;58173;52.500;5.494;2024-02-26T14:42:16;6.60;;;2.45;;
70605;SDS011;58173;52.500;5.494;2024-02-26T14:44:44;5.60;;;2.00;;
70605;SDS011;58173;52.500;5.494;2024-02-26T14:47:13;15.68;;;6.75;;
70605;SDS011;58173;52.500;5.494;2024-02-26T14:49:41;6.82;;;2.53;;
70605;SDS011;58173;52.500;5.494;2024-02-26T14:52:09;6.88;;;2.78;;